Time;durP1;ratioP1;P1;durP2;ratioP2;P2;SDS_P1;SDS_P2;PMS_P1;PMS_P2;Temp;Humidity;BMP_temperature;BMP_pressure;BME280_temperature;BME280_humidity;BME280_pressure;Samples;Min_cycle;Max_cycle;Signal;HPM_P1;HPM_P2
2023/05/17 00:01:12;;;;;;;2.13;1.10;;;;;;;;;;5073836;28;20478;-62
2023/05/17 00:03:41;;;;;;;2.00;1.13;;;;;;;;;;5073747;28;20479;-62
2023/05/17 00:06:08;;;;;;;4.30;1.63;;;;;;;;;;5073589;28;20453;-62
2023/05/17 00:08:35;;;;;;;2.83;1.47;;;;;;;;;;5073403;28;20562;-62
2023/05/17 00:11:02;;;;;;;2.03;1.13;;;;;;;;;;5073429;28;20546;-63
2023/05/17 00:13:29;;;;;;;3.23;1.43;;;;;;;;;;5073641;28;20451;-62
2023/05/17 00:15:56;;;;;;;4.73;1.23;;;;;;;;;;5073100;28;20444;-63
2023/05/17 00:18:23;;;;;;;3.17;1.40;;;;;;;;;;5073143;28;20447;-62
2023/05/17 00:20:51;;;;;;;3.67;1.27;;;;;;;;;;5073388;28;20527;-62
2023/05/17 00:23:18;;;;;;;5.50;1.60;;;;;;;;;;5073246;28;20443;-63
2023/05/17 00:25:45;;;;;;;8.73;1.57;;;;;;;;;;5073228;28;20446;-62
2023/05/17 00:28:12;;;;;;;3.33;1.40;;;;;;;;;;5073358;28;20479;-63
2023/05/17 00:30:39;;;;;;;4.23;1.70;;;;;;;;;;5073507;28;20886;-62
2023/05/17 00:33:06;;;;;;;7.73;1.97;;;;;;;;;;5073205;28;20532;-62
2023/05/17 00:35:33;;;;;;;2.73;1.27;;;;;;;;;;5073168;28;20419;-62
2023/05/17 00:38:02;;;;;;;7.33;1.70;;;;;;;;;;5072988;28;20535;-62
2023/05/17 00:40:29;;;;;;;2.13;1.77;;;;;;;;;;5073238;28;20444;-63
2023/05/17 00:42:56;;;;;;;5.63;1.73;;;;;;;;;;5072932;28;21025;-62
2023/05/17 00:45:23;;;;;;;7.03;2.00;;;;;;;;;;5073117;28;20426;-62
2023/05/17 00:47:50;;;;;;;7.37;2.00;;;;;;;;;;5072945;28;20800;-62
2023/05/17 00:50:17;;;;;;;2.50;1.90;;;;;;;;;;5072886;28;20454;-62
2023/05/17 00:52:44;;;;;;;5.10;2.10;;;;;;;;;;5072865;28;20546;-62
2023/05/17 00:55:12;;;;;;;3.83;1.90;;;;;;;;;;5072801;28;20504;-62
2023/05/17 00:57:39;;;;;;;6.93;1.87;;;;;;;;;;5072918;28;20459;-62
2023/05/17 01:00:07;;;;;;;3.33;1.80;;;;;;;;;;5072821;28;20451;-62
2023/05/17 01:02:34;;;;;;;6.10;3.50;;;;;;;;;;5072871;28;20558;-62
2023/05/17 01:05:01;;;;;;;2.70;1.90;;;;;;;;;;5072690;28;20539;-63
2023/05/17 01:07:28;;;;;;;9.10;2.47;;;;;;;;;;5072847;28;20475;-62
2023/05/17 01:09:55;;;;;;;4.70;1.97;;;;;;;;;;5072786;28;20911;-62
2023/05/17 01:12:28;;;;;;;6.13;2.37;;;;;;;;;;5072867;28;20452;-62
2023/05/17 01:14:59;;;;;;;2.40;2.10;;;;;;;;;;5072767;28;20806;-62
2023/05/17 01:17:29;;;;;;;6.47;2.00;;;;;;;;;;5072585;28;20681;-63
2023/05/17 01:20:05;;;;;;;5.07;2.57;;;;;;;;;;5072816;28;20458;-63
2023/05/17 01:22:39;;;;;;;3.90;2.37;;;;;;;;;;5072758;28;20451;-63
2023/05/17 01:25:12;;;;;;;2.33;1.70;;;;;;;;;;5072649;28;20426;-62
2023/05/17 01:27:43;;;;;;;7.33;2.27;;;;;;;;;;5073057;28;20471;-62
2023/05/17 01:30:12;;;;;;;7.10;2.20;;;;;;;;;;5076511;28;20538;-63
2023/05/17 01:32:41;;;;;;;4.30;2.10;;;;;;;;;;5076682;28;20527;-62
2023/05/17 01:35:08;;;;;;;4.37;2.50;;;;;;;;;;5076669;28;20452;-63
2023/05/17 01:37:35;;;;;;;3.60;2.10;;;;;;;;;;5076423;28;20965;-62
2023/05/17 01:40:03;;;;;;;6.60;2.30;;;;;;;;;;5076444;28;20443;-62
2023/05/17 01:42:32;;;;;;;3.97;2.17;;;;;;;;;;5076297;28;20446;-63
2023/05/17 01:45:05;;;;;;;6.10;1.93;;;;;;;;;;5076544;28;20501;-63
2023/05/17 01:47:37;;;;;;;2.80;1.90;;;;;;;;;;5076345;28;20454;-62
2023/05/17 01:50:07;;;;;;;6.90;2.60;;;;;;;;;;5076352;28;20537;-63
2023/05/17 01:52:38;;;;;;;3.47;2.10;;;;;;;;;;5076150;28;20477;-62
2023/05/17 01:55:07;;;;;;;5.10;2.20;;;;;;;;;;5075873;28;20497;-63
2023/05/17 01:57:35;;;;;;;4.70;2.40;;;;;;;;;;5076237;28;20446;-63
2023/05/17 02:00:06;;;;;;;3.43;2.17;;;;;;;;;;5076112;28;20493;-63
2023/05/17 02:02:33;;;;;;;3.80;2.33;;;;;;;;;;5076147;28;20509;-62
2023/05/17 02:05:00;;;;;;;5.50;2.10;;;;;;;;;;5076003;28;20534;-62
2023/05/17 02:07:27;;;;;;;5.57;2.47;;;;;;;;;;5075905;28;20448;-63
2023/05/17 02:09:54;;;;;;;5.47;2.47;;;;;;;;;;5075720;28;20483;-62
2023/05/17 02:12:21;;;;;;;5.77;2.40;;;;;;;;;;5076091;28;20455;-63
2023/05/17 02:14:49;;;;;;;3.07;2.20;;;;;;;;;;5075971;28;20443;-62
2023/05/17 02:17:17;;;;;;;9.17;1.80;;;;;;;;;;5075892;28;20543;-63
2023/05/17 02:19:44;;;;;;;10.07;3.00;;;;;;;;;;5075744;28;20516;-62
2023/05/17 02:22:11;;;;;;;8.00;2.30;;;;;;;;;;5075646;28;20443;-63
2023/05/17 02:24:38;;;;;;;10.17;2.50;;;;;;;;;;5075844;28;20440;-63
2023/05/17 02:27:05;;;;;;;8.23;3.40;;;;;;;;;;5075856;28;20448;-63
2023/05/17 02:29:32;;;;;;;3.50;2.40;;;;;;;;;;5075953;28;20483;-62
2023/05/17 02:31:59;;;;;;;4.27;2.23;;;;;;;;;;5075496;28;21014;-63
2023/05/17 02:34:27;;;;;;;4.37;2.40;;;;;;;;;;5075537;28;20490;-63
2023/05/17 02:36:54;;;;;;;5.37;2.30;;;;;;;;;;5076021;28;20443;-63
2023/05/17 02:39:21;;;;;;;7.33;2.47;;;;;;;;;;5074724;28;20531;-63
2023/05/17 02:41:48;;;;;;;7.40;2.77;;;;;;;;;;5075462;28;20427;-63
2023/05/17 02:44:15;;;;;;;4.00;2.67;;;;;;;;;;5075511;28;20444;-62
2023/05/17 02:46:42;;;;;;;6.80;2.53;;;;;;;;;;5075191;28;20992;-62
2023/05/17 02:49:09;;;;;;;3.70;2.40;;;;;;;;;;5075067;28;20484;-63
2023/05/17 02:51:37;;;;;;;9.07;2.40;;;;;;;;;;5075444;28;20451;-63
2023/05/17 02:54:04;;;;;;;6.23;2.63;;;;;;;;;;5074979;28;20571;-63
2023/05/17 02:56:31;;;;;;;33.17;4.00;;;;;;;;;;5075230;28;20502;-62
2023/05/17 02:59:00;;;;;;;7.33;2.80;;;;;;;;;;5075069;28;20431;-63
2023/05/17 03:01:27;;;;;;;8.40;2.37;;;;;;;;;;5075062;28;20527;-62
2023/05/17 03:03:53;;;;;;;4.60;2.47;;;;;;;;;;5074925;28;20546;-63
2023/05/17 03:06:20;;;;;;;4.37;2.70;;;;;;;;;;5075047;28;20481;-63
2023/05/17 03:08:49;;;;;;;7.30;2.67;;;;;;;;;;5074855;28;20479;-62
2023/05/17 03:11:16;;;;;;;6.10;2.73;;;;;;;;;;5074924;28;20487;-62
2023/05/17 03:13:45;;;;;;;9.37;3.13;;;;;;;;;;5074783;28;20447;-63
2023/05/17 03:16:12;;;;;;;6.37;2.53;;;;;;;;;;5074653;28;20453;-63
2023/05/17 03:18:38;;;;;;;8.27;3.20;;;;;;;;;;5074591;28;20547;-62
2023/05/17 03:21:05;;;;;;;5.37;3.03;;;;;;;;;;5074784;28;20506;-63
2023/05/17 03:23:32;;;;;;;9.43;3.00;;;;;;;;;;5074724;28;20530;-62
2023/05/17 03:26:00;;;;;;;7.30;2.50;;;;;;;;;;5074593;28;20878;-63
2023/05/17 03:28:27;;;;;;;5.80;2.77;;;;;;;;;;5074321;28;20818;-63
2023/05/17 03:30:54;;;;;;;4.83;2.63;;;;;;;;;;5074409;28;20443;-62
2023/05/17 03:33:21;;;;;;;6.90;3.17;;;;;;;;;;5074608;28;20452;-63
2023/05/17 03:35:49;;;;;;;4.03;2.30;;;;;;;;;;5074500;28;20454;-63
2023/05/17 03:38:16;;;;;;;3.67;2.70;;;;;;;;;;5074311;28;20422;-63
2023/05/17 03:40:42;;;;;;;9.60;3.30;;;;;;;;;;5074346;28;20458;-62
2023/05/17 03:43:11;;;;;;;6.83;3.00;;;;;;;;;;5074271;28;20454;-62
2023/05/17 03:45:38;;;;;;;6.60;3.10;;;;;;;;;;5074321;28;20434;-63
2023/05/17 03:48:06;;;;;;;5.07;3.20;;;;;;;;;;5074166;28;20785;-63
2023/05/17 03:50:33;;;;;;;8.00;3.43;;;;;;;;;;5074219;28;20454;-63
2023/05/17 03:53:00;;;;;;;6.70;3.13;;;;;;;;;;5074032;28;20455;-63
2023/05/17 03:55:27;;;;;;;7.90;2.90;;;;;;;;;;5073870;28;20846;-62
2023/05/17 03:57:53;;;;;;;6.50;2.70;;;;;;;;;;5073795;28;20539;-63
2023/05/17 04:00:22;;;;;;;9.37;3.80;;;;;;;;;;5073959;28;20448;-62
2023/05/17 04:02:51;;;;;;;7.63;2.80;;;;;;;;;;5073669;28;20963;-62
2023/05/17 04:05:18;;;;;;;6.87;3.20;;;;;;;;;;5073831;28;20444;-63
2023/05/17 04:07:45;;;;;;;6.80;3.10;;;;;;;;;;5073826;28;20931;-62
2023/05/17 04:10:12;;;;;;;8.80;3.63;;;;;;;;;;5073498;28;20490;-62
2023/05/17 04:12:39;;;;;;;3.93;2.40;;;;;;;;;;5073500;28;20456;-63
2023/05/17 04:15:06;;;;;;;4.70;2.73;;;;;;;;;;5073787;28;20452;-63
2023/05/17 04:17:35;;;;;;;7.70;3.40;;;;;;;;;;5073666;28;20443;-63
2023/05/17 04:20:03;;;;;;;6.20;3.40;;;;;;;;;;5073561;28;20470;-62
2023/05/17 04:22:30;;;;;;;8.83;3.30;;;;;;;;;;5073367;28;20447;-62
2023/05/17 04:24:57;;;;;;;6.43;3.20;;;;;;;;;;5073344;28;20810;-63
2023/05/17 04:27:23;;;;;;;6.43;3.40;;;;;;;;;;5073244;28;20501;-62
2023/05/17 04:29:51;;;;;;;5.30;3.00;;;;;;;;;;5073312;28;20571;-62
2023/05/17 04:32:20;;;;;;;10.60;3.73;;;;;;;;;;5073367;28;20452;-63
2023/05/17 04:34:48;;;;;;;8.00;2.80;;;;;;;;;;5073188;28;20456;-62
2023/05/17 04:37:15;;;;;;;12.60;5.77;;;;;;;;;;5073261;28;20480;-62
2023/05/17 04:39:42;;;;;;;8.03;4.17;;;;;;;;;;5073010;28;20448;-63
2023/05/17 04:42:09;;;;;;;6.53;3.43;;;;;;;;;;5073298;28;20541;-63
2023/05/17 04:44:36;;;;;;;9.90;3.70;;;;;;;;;;5073253;28;20542;-63
2023/05/17 04:47:03;;;;;;;11.37;4.20;;;;;;;;;;5073167;28;20447;-62
2023/05/17 04:49:30;;;;;;;12.73;4.10;;;;;;;;;;5073028;28;20812;-62
2023/05/17 04:51:58;;;;;;;8.33;4.87;;;;;;;;;;5072976;28;20517;-63
2023/05/17 04:54:26;;;;;;;10.13;3.50;;;;;;;;;;5072778;28;20472;-63
2023/05/17 04:56:53;;;;;;;11.00;4.00;;;;;;;;;;5073138;28;20539;-63
2023/05/17 04:59:20;;;;;;;9.17;3.97;;;;;;;;;;5072934;28;20811;-63
2023/05/17 05:01:47;;;;;;;8.70;3.57;;;;;;;;;;5072979;28;20523;-63
2023/05/17 05:04:13;;;;;;;7.33;3.90;;;;;;;;;;5072452;28;20436;-63
2023/05/17 05:06:40;;;;;;;9.57;3.43;;;;;;;;;;5072867;28;20509;-63
2023/05/17 05:09:09;;;;;;;10.27;4.33;;;;;;;;;;5073100;28;20478;-63
2023/05/17 05:11:36;;;;;;;13.83;4.37;;;;;;;;;;5073146;28;20463;-63
2023/05/17 05:14:03;;;;;;;8.37;3.43;;;;;;;;;;5072881;28;20807;-63
2023/05/17 05:16:30;;;;;;;17.40;5.37;;;;;;;;;;5072921;28;20448;-63
2023/05/17 05:18:57;;;;;;;10.10;3.80;;;;;;;;;;5072655;28;20458;-63
2023/05/17 05:21:24;;;;;;;9.70;4.00;;;;;;;;;;5072641;28;20452;-63
2023/05/17 05:23:51;;;;;;;8.00;3.40;;;;;;;;;;5072868;28;20440;-63
2023/05/17 05:26:19;;;;;;;7.40;3.23;;;;;;;;;;5072724;28;20531;-63
2023/05/17 05:28:46;;;;;;;8.97;3.57;;;;;;;;;;5072506;28;20448;-63
2023/05/17 05:31:13;;;;;;;10.10;3.00;;;;;;;;;;5072513;28;20550;-63
2023/05/17 05:33:41;;;;;;;11.83;3.03;;;;;;;;;;5072499;28;20454;-63
2023/05/17 05:36:08;;;;;;;8.37;3.83;;;;;;;;;;5072644;28;20860;-63
2023/05/17 05:38:35;;;;;;;9.87;3.50;;;;;;;;;;5072461;28;20458;-63
2023/05/17 05:41:02;;;;;;;10.10;3.20;;;;;;;;;;5072568;28;20451;-63
2023/05/17 05:43:31;;;;;;;10.60;3.60;;;;;;;;;;5072324;28;20935;-63
2023/05/17 05:45:58;;;;;;;12.03;3.40;;;;;;;;;;5072270;28;20535;-63
2023/05/17 05:48:25;;;;;;;7.70;2.90;;;;;;;;;;5072164;28;20426;-63
2023/05/17 05:50:51;;;;;;;9.20;2.87;;;;;;;;;;5072320;28;20479;-63
2023/05/17 05:53:18;;;;;;;6.63;3.50;;;;;;;;;;5072344;28;20454;-63
2023/05/17 05:55:45;;;;;;;6.03;2.93;;;;;;;;;;5072117;28;20835;-63
2023/05/17 05:58:12;;;;;;;8.23;2.93;;;;;;;;;;5072422;28;20538;-62
2023/05/17 06:00:41;;;;;;;8.27;3.40;;;;;;;;;;5072081;28;20448;-62
2023/05/17 06:03:07;;;;;;;10.63;2.80;;;;;;;;;;5071940;28;21012;-62
2023/05/17 06:05:34;;;;;;;7.33;2.50;;;;;;;;;;5072255;28;20871;-62
2023/05/17 06:08:01;;;;;;;8.93;3.27;;;;;;;;;;5072069;28;20521;-62
2023/05/17 06:10:28;;;;;;;8.90;3.17;;;;;;;;;;5072060;28;20566;-62
2023/05/17 06:12:55;;;;;;;6.70;3.30;;;;;;;;;;5072063;28;20458;-62
2023/05/17 06:15:22;;;;;;;11.10;3.00;;;;;;;;;;5073637;28;20931;-62
2023/05/17 06:17:50;;;;;;;7.03;2.53;;;;;;;;;;5075722;28;20550;-62
2023/05/17 06:20:17;;;;;;;5.80;2.67;;;;;;;;;;5075528;28;20491;-62
2023/05/17 06:22:44;;;;;;;12.77;3.30;;;;;;;;;;5075495;28;20474;-62
2023/05/17 06:25:11;;;;;;;4.70;2.70;;;;;;;;;;5075496;28;20447;-62
2023/05/17 06:27:38;;;;;;;6.07;2.70;;;;;;;;;;5075335;28;20851;-62
2023/05/17 06:30:06;;;;;;;6.77;3.00;;;;;;;;;;5075240;28;20486;-62
2023/05/17 06:32:33;;;;;;;7.30;3.23;;;;;;;;;;5075630;28;21051;-62
2023/05/17 06:35:01;;;;;;;12.50;3.47;;;;;;;;;;5075267;28;21027;-62
2023/05/17 06:37:28;;;;;;;6.87;3.33;;;;;;;;;;5075373;28;20787;-62
2023/05/17 06:40:03;;;;;;;10.33;2.70;;;;;;;;;;5075219;28;20938;-62
2023/05/17 06:42:30;;;;;;;9.60;2.33;;;;;;;;;;5075211;28;20448;-62
2023/05/17 06:44:57;;;;;;;5.23;2.03;;;;;;;;;;5075465;28;20446;-62
2023/05/17 06:47:24;;;;;;;12.10;2.80;;;;;;;;;;5075277;28;20808;-63
2023/05/17 06:49:51;;;;;;;7.63;2.83;;;;;;;;;;5075009;28;20567;-63
2023/05/17 06:52:19;;;;;;;4.43;1.80;;;;;;;;;;5074845;28;21018;-62
2023/05/17 06:54:46;;;;;;;10.47;2.67;;;;;;;;;;5074639;28;20471;-62
2023/05/17 06:57:13;;;;;;;6.07;2.50;;;;;;;;;;5074891;28;20451;-63
2023/05/17 06:59:40;;;;;;;12.13;2.17;;;;;;;;;;5074919;28;20558;-62
2023/05/17 07:02:07;;;;;;;9.50;3.33;;;;;;;;;;5074918;28;20543;-62
2023/05/17 07:04:34;;;;;;;10.57;2.27;;;;;;;;;;5074869;28;20447;-62
2023/05/17 07:07:01;;;;;;;11.07;2.83;;;;;;;;;;5074809;28;20538;-61
2023/05/17 07:09:29;;;;;;;6.20;2.50;;;;;;;;;;5074535;28;20472;-63
2023/05/17 07:11:56;;;;;;;11.50;1.90;;;;;;;;;;5074258;28;20454;-62
2023/05/17 07:14:23;;;;;;;6.63;2.77;;;;;;;;;;5074715;28;20504;-63
2023/05/17 07:16:50;;;;;;;6.83;2.50;;;;;;;;;;5074504;28;20965;-63
2023/05/17 07:19:17;;;;;;;4.90;1.87;;;;;;;;;;5074314;28;20422;-63
2023/05/17 07:21:44;;;;;;;11.80;3.20;;;;;;;;;;5074430;28;20422;-62
2023/05/17 07:24:11;;;;;;;7.43;2.37;;;;;;;;;;5074370;28;20448;-63
2023/05/17 07:26:39;;;;;;;11.43;2.40;;;;;;;;;;5074051;28;20455;-63
2023/05/17 07:29:06;;;;;;;4.67;1.83;;;;;;;;;;5072529;28;20459;-63
2023/05/17 07:31:33;;;;;;;7.60;3.10;;;;;;;;;;5073010;28;20493;-64
2023/05/17 07:34:00;;;;;;;5.93;1.90;;;;;;;;;;5073407;28;20541;-63
2023/05/17 07:36:29;;;;;;;7.13;2.20;;;;;;;;;;5079146;28;20469;-63
2023/05/17 07:38:56;;;;;;;8.13;2.07;;;;;;;;;;5072593;28;20444;-63
2023/05/17 07:41:23;;;;;;;5.57;1.93;;;;;;;;;;5073534;28;20451;-64
2023/05/17 07:43:51;;;;;;;7.37;2.20;;;;;;;;;;5072653;28;20469;-63
2023/05/17 07:46:18;;;;;;;5.73;1.77;;;;;;;;;;5072104;28;20444;-63
2023/05/17 07:48:45;;;;;;;10.43;2.23;;;;;;;;;;5073694;28;20460;-63
2023/05/17 07:51:12;;;;;;;8.53;1.97;;;;;;;;;;5073290;28;20467;-63
2023/05/17 07:53:39;;;;;;;5.53;2.00;;;;;;;;;;5070886;28;20454;-63
2023/05/17 07:56:06;;;;;;;6.37;2.00;;;;;;;;;;5073807;28;20814;-63
2023/05/17 07:58:33;;;;;;;8.60;2.53;;;;;;;;;;5070280;28;20444;-63
2023/05/17 08:01:01;;;;;;;2.80;1.57;;;;;;;;;;5071307;28;20526;-63
2023/05/17 08:03:29;;;;;;;4.20;1.57;;;;;;;;;;5073057;28;20459;-63
2023/05/17 08:05:56;;;;;;;6.00;1.87;;;;;;;;;;5070317;28;20445;-63
2023/05/17 08:08:23;;;;;;;5.10;1.60;;;;;;;;;;5072986;28;20448;-63
2023/05/17 08:10:50;;;;;;;2.00;1.33;;;;;;;;;;5073013;28;20478;-63
2023/05/17 08:13:17;;;;;;;5.23;1.77;;;;;;;;;;5073538;28;20448;-63
2023/05/17 08:15:44;;;;;;;3.47;1.57;;;;;;;;;;5073351;28;20573;-64
2023/05/17 08:18:12;;;;;;;4.00;1.87;;;;;;;;;;5073232;28;20810;-63
2023/05/17 08:20:39;;;;;;;8.37;2.57;;;;;;;;;;5073619;28;20535;-63
2023/05/17 08:23:07;;;;;;;6.67;2.33;;;;;;;;;;5073633;28;20502;-63
2023/05/17 08:25:34;;;;;;;7.20;1.80;;;;;;;;;;5073458;28;20531;-63
2023/05/17 08:28:01;;;;;;;5.40;2.10;;;;;;;;;;5073379;28;20803;-64
2023/05/17 08:30:28;;;;;;;8.23;2.30;;;;;;;;;;5073190;28;20563;-63
2023/05/17 08:32:55;;;;;;;10.83;2.53;;;;;;;;;;5073139;28;20545;-63
2023/05/17 08:35:24;;;;;;;6.40;2.80;;;;;;;;;;5073417;28;20452;-64
2023/05/17 08:37:51;;;;;;;5.83;1.90;;;;;;;;;;5072557;28;20445;-63
2023/05/17 08:40:21;;;;;;;5.93;2.10;;;;;;;;;;5073120;28;20485;-63
2023/05/17 08:42:48;;;;;;;10.70;1.80;;;;;;;;;;5073064;28;20530;-63
2023/05/17 08:45:16;;;;;;;6.20;1.93;;;;;;;;;;5073107;28;20538;-63
2023/05/17 08:47:43;;;;;;;8.73;2.20;;;;;;;;;;5072930;28;20451;-63
2023/05/17 08:50:11;;;;;;;3.90;1.73;;;;;;;;;;5072929;28;20476;-63
2023/05/17 08:52:40;;;;;;;6.17;1.90;;;;;;;;;;5073048;28;20481;-63
2023/05/17 08:55:08;;;;;;;7.50;2.40;;;;;;;;;;5072799;28;20504;-63
2023/05/17 08:57:36;;;;;;;6.80;1.23;;;;;;;;;;5072957;28;20823;-64
2023/05/17 09:00:05;;;;;;;7.53;3.33;;;;;;;;;;5072719;28;20452;-64
2023/05/17 09:02:32;;;;;;;7.90;2.17;;;;;;;;;;5073007;28;20854;-64
2023/05/17 09:05:00;;;;;;;8.33;2.50;;;;;;;;;;5072898;28;20540;-63
2023/05/17 09:07:27;;;;;;;2.27;1.47;;;;;;;;;;5072880;28;20546;-63
2023/05/17 09:09:55;;;;;;;7.60;1.83;;;;;;;;;;5072639;28;20803;-63
2023/05/17 09:12:22;;;;;;;4.43;1.53;;;;;;;;;;5072779;28;20487;-63
2023/05/17 09:14:49;;;;;;;4.13;1.70;;;;;;;;;;5072715;28;20501;-64
2023/05/17 09:17:17;;;;;;;7.87;1.93;;;;;;;;;;5072711;28;20445;-63
2023/05/17 09:19:45;;;;;;;6.20;1.93;;;;;;;;;;5072581;28;20957;-63
2023/05/17 09:22:13;;;;;;;4.60;2.30;;;;;;;;;;5072940;28;20550;-64
2023/05/17 09:24:41;;;;;;;9.60;2.20;;;;;;;;;;5072643;28;20460;-63
2023/05/17 09:27:09;;;;;;;4.43;1.80;;;;;;;;;;5072478;28;20448;-64
2023/05/17 09:29:36;;;;;;;7.25;2.45;;;;;;;;;;5072375;28;20876;-67
2023/05/17 09:32:13;;;;;;;5.10;1.70;;;;;;;;;;5072608;28;20218;-64
2023/05/17 09:34:41;;;;;;;8.17;2.50;;;;;;;;;;5072525;28;20454;-66
2023/05/17 09:37:13;;;;;;;3.87;1.87;;;;;;;;;;5072539;28;20449;-64
2023/05/17 09:39:40;;;;;;;5.50;1.87;;;;;;;;;;5072495;28;20817;-63
2023/05/17 09:42:08;;;;;;;4.63;1.80;;;;;;;;;;5072461;28;20951;-63
2023/05/17 09:44:47;;;;;;;6.47;2.07;;;;;;;;;;5072433;28;20456;-63
2023/05/17 09:47:21;;;;;;;6.80;2.30;;;;;;;;;;5072459;28;20449;-63
2023/05/17 09:49:48;;;;;;;7.50;2.13;;;;;;;;;;5074895;28;20451;-63
2023/05/17 09:52:17;;;;;;;4.40;2.00;;;;;;;;;;5074140;28;20479;-63
2023/05/17 09:54:52;;;;;;;5.37;1.73;;;;;;;;;;5075027;28;20487;-64
2023/05/17 09:57:19;;;;;;;6.27;1.90;;;;;;;;;;5075754;28;20448;-64
2023/05/17 09:59:48;;;;;;;6.40;2.10;;;;;;;;;;5073759;28;20839;-64
2023/05/17 10:02:21;;;;;;;7.70;2.75;;;;;;;;;;5075164;28;20898;-62
2023/05/17 10:04:49;;;;;;;4.60;2.07;;;;;;;;;;5075813;28;20187;-63
2023/05/17 10:07:16;;;;;;;7.77;2.13;;;;;;;;;;5076016;28;20452;-63
2023/05/17 10:09:44;;;;;;;6.23;2.03;;;;;;;;;;5075860;28;20455;-63
2023/05/17 10:12:14;;;;;;;8.37;1.80;;;;;;;;;;5075642;28;20487;-63
2023/05/17 10:14:42;;;;;;;6.60;2.10;;;;;;;;;;5075797;28;20484;-63
2023/05/17 10:17:10;;;;;;;12.13;2.20;;;;;;;;;;5075224;28;20449;-64
2023/05/17 10:19:37;;;;;;;5.30;1.97;;;;;;;;;;5075850;28;20814;-64
2023/05/17 10:22:06;;;;;;;7.40;2.67;;;;;;;;;;5075884;28;20449;-63
2023/05/17 10:24:33;;;;;;;4.23;1.70;;;;;;;;;;5075639;28;20450;-63
2023/05/17 10:27:00;;;;;;;11.63;2.20;;;;;;;;;;5075355;28;20545;-64
2023/05/17 10:29:27;;;;;;;6.47;2.03;;;;;;;;;;5075300;28;20528;-63
2023/05/17 10:31:55;;;;;;;8.73;1.50;;;;;;;;;;5075170;28;20482;-63
2023/05/17 10:34:24;;;;;;;5.27;1.70;;;;;;;;;;5075454;28;20482;-63
2023/05/17 10:36:51;;;;;;;5.10;2.17;;;;;;;;;;5075325;28;20454;-63
2023/05/17 10:39:18;;;;;;;5.00;1.70;;;;;;;;;;5075188;28;20449;-63
2023/05/17 10:41:46;;;;;;;6.50;2.30;;;;;;;;;;5075250;28;20821;-63
2023/05/17 10:44:15;;;;;;;6.23;1.77;;;;;;;;;;5075054;28;20536;-63
2023/05/17 10:46:51;;;;;;;7.10;2.20;;;;;;;;;;5075158;28;20489;-63
2023/05/17 10:49:18;;;;;;;7.60;2.07;;;;;;;;;;5075130;28;20491;-63
2023/05/17 10:51:46;;;;;;;7.90;2.40;;;;;;;;;;5074950;28;20491;-64
2023/05/17 10:54:17;;;;;;;4.50;1.70;;;;;;;;;;5074923;28;20828;-63
2023/05/17 10:56:47;;;;;;;7.17;2.73;;;;;;;;;;5074768;28;20485;-63
2023/05/17 10:59:15;;;;;;;5.83;1.93;;;;;;;;;;5075089;28;20449;-64
2023/05/17 11:01:53;;;;;;;6.77;1.90;;;;;;;;;;5074033;28;20453;-63
2023/05/17 11:04:24;;;;;;;7.93;2.50;;;;;;;;;;5074703;28;20445;-63
2023/05/17 11:06:53;;;;;;;6.63;1.87;;;;;;;;;;5074086;28;20443;-64
2023/05/17 11:09:23;;;;;;;10.67;2.17;;;;;;;;;;5072928;28;20450;-64
2023/05/17 11:12:06;;;;;;;5.47;1.93;;;;;;;;;;5073531;28;21016;-64
2023/05/17 11:14:49;;;;;;;8.63;1.77;;;;;;;;;;5073459;28;21203;-64
2023/05/17 11:17:17;;;;;;;9.80;2.63;;;;;;;;;;5073869;28;20480;-64
2023/05/17 11:19:56;;;;;;;4.27;1.40;;;;;;;;;;5074108;28;20444;-64
2023/05/17 11:22:25;;;;;;;5.50;1.80;;;;;;;;;;5073599;28;20446;-64
2023/05/17 11:24:53;;;;;;;7.23;1.87;;;;;;;;;;5074414;28;20446;-64
2023/05/17 11:27:25;;;;;;;3.30;1.70;;;;;;;;;;5069201;28;20561;-64
2023/05/17 11:29:53;;;;;;;5.53;1.80;;;;;;;;;;5074114;28;20443;-64
2023/05/17 11:32:26;;;;;;;3.03;1.40;;;;;;;;;;5074420;28;20494;-64
2023/05/17 11:34:53;;;;;;;5.67;1.70;;;;;;;;;;5074386;28;20446;-64
2023/05/17 11:37:27;;;;;;;5.27;1.77;;;;;;;;;;5074211;28;20482;-64
2023/05/17 11:40:04;;;;;;;11.20;2.20;;;;;;;;;;5074020;28;20928;-64
2023/05/17 11:42:31;;;;;;;5.83;2.37;;;;;;;;;;5073645;28;20473;-64
2023/05/17 11:44:58;;;;;;;6.20;2.20;;;;;;;;;;5072889;28;20602;-64
2023/05/17 11:47:26;;;;;;;12.07;2.87;;;;;;;;;;5070072;28;20450;-64
2023/05/17 11:49:54;;;;;;;9.70;2.47;;;;;;;;;;5072803;28;20444;-65
2023/05/17 11:52:21;;;;;;;4.97;1.67;;;;;;;;;;5073784;28;20481;-64
2023/05/17 11:54:50;;;;;;;10.00;2.77;;;;;;;;;;5073542;28;20917;-64
2023/05/17 11:57:19;;;;;;;6.57;1.80;;;;;;;;;;5073662;28;20454;-64
2023/05/17 11:59:46;;;;;;;3.20;1.53;;;;;;;;;;5073834;28;20537;-64
2023/05/17 12:02:27;;;;;;;10.03;2.03;;;;;;;;;;5073470;28;20460;-63
2023/05/17 12:04:54;;;;;;;6.63;2.27;;;;;;;;;;5073233;28;20461;-64
2023/05/17 12:07:21;;;;;;;3.57;1.43;;;;;;;;;;5073503;28;20583;-64
2023/05/17 12:09:49;;;;;;;2.63;1.57;;;;;;;;;;5073662;28;20461;-64
2023/05/17 12:12:18;;;;;;;5.90;2.20;;;;;;;;;;5072372;28;20481;-64
2023/05/17 12:14:46;;;;;;;5.57;2.13;;;;;;;;;;5073216;28;20448;-64
2023/05/17 12:17:17;;;;;;;6.90;1.80;;;;;;;;;;5073117;28;20450;-64
2023/05/17 12:19:44;;;;;;;3.73;1.67;;;;;;;;;;5073125;28;20454;-64
2023/05/17 12:22:12;;;;;;;3.70;1.60;;;;;;;;;;5073188;28;20544;-64
2023/05/17 12:24:39;;;;;;;5.30;2.43;;;;;;;;;;5073315;28;20541;-64
2023/05/17 12:27:08;;;;;;;7.50;1.93;;;;;;;;;;5073190;28;20485;-64
2023/05/17 12:29:35;;;;;;;5.10;2.13;;;;;;;;;;5073206;28;20458;-64
2023/05/17 12:32:02;;;;;;;10.20;2.57;;;;;;;;;;5072987;28;20485;-64
2023/05/17 12:34:30;;;;;;;5.37;1.60;;;;;;;;;;5072504;28;20446;-65
2023/05/17 12:36:57;;;;;;;6.97;2.00;;;;;;;;;;5072519;28;20982;-64
2023/05/17 12:39:24;;;;;;;4.83;2.27;;;;;;;;;;5072992;28;20442;-63
2023/05/17 12:41:52;;;;;;;8.80;1.70;;;;;;;;;;5073080;28;20533;-63
2023/05/17 12:44:21;;;;;;;4.90;1.90;;;;;;;;;;5073090;28;20450;-63
2023/05/17 12:46:52;;;;;;;4.90;2.10;;;;;;;;;;5072780;28;20541;-64
2023/05/17 12:49:21;;;;;;;6.90;1.67;;;;;;;;;;5072758;28;20448;-64
2023/05/17 12:51:48;;;;;;;8.38;2.13;;;;;;;;;;5072562;28;20460;-64
2023/05/17 12:54:16;;;;;;;8.20;1.80;;;;;;;;;;5072531;28;20227;-64
2023/05/17 12:56:43;;;;;;;4.80;1.80;;;;;;;;;;5072320;28;20516;-64
2023/05/17 12:59:12;;;;;;;13.60;3.17;;;;;;;;;;5072590;28;20462;-64
2023/05/17 13:01:43;;;;;;;4.40;1.90;;;;;;;;;;5072362;28;20494;-64
2023/05/17 13:04:10;;;;;;;6.37;2.07;;;;;;;;;;5072649;28;20538;-65
2023/05/17 13:06:44;;;;;;;6.63;2.43;;;;;;;;;;5072548;28;20450;-64
2023/05/17 13:09:11;;;;;;;3.73;1.40;;;;;;;;;;5072619;28;20536;-64
2023/05/17 13:11:40;;;;;;;3.73;1.37;;;;;;;;;;5072623;28;20475;-64
2023/05/17 13:14:07;;;;;;;5.27;1.60;;;;;;;;;;5072451;28;20452;-64
2023/05/17 13:16:34;;;;;;;4.87;1.53;;;;;;;;;;5072459;28;20464;-64
2023/05/17 13:19:03;;;;;;;2.27;1.50;;;;;;;;;;5072565;28;20549;-64
2023/05/17 13:21:30;;;;;;;6.80;1.70;;;;;;;;;;5072514;28;20453;-64
2023/05/17 13:23:57;;;;;;;3.43;1.43;;;;;;;;;;5073759;28;20458;-64
2023/05/17 13:26:25;;;;;;;3.60;1.83;;;;;;;;;;5076657;28;20446;-64
2023/05/17 13:28:51;;;;;;;6.23;2.37;;;;;;;;;;5076345;28;20449;-64
2023/05/17 13:31:18;;;;;;;6.60;2.23;;;;;;;;;;5076559;28;20548;-64
2023/05/17 13:33:48;;;;;;;6.70;2.87;;;;;;;;;;5076559;28;20536;-63
2023/05/17 13:36:17;;;;;;;3.70;1.60;;;;;;;;;;5076556;28;20450;-64
2023/05/17 13:38:44;;;;;;;6.07;1.80;;;;;;;;;;5076417;28;20452;-63
2023/05/17 13:41:10;;;;;;;7.47;1.97;;;;;;;;;;5076288;28;20545;-64
2023/05/17 13:43:37;;;;;;;4.20;1.60;;;;;;;;;;5075978;28;20445;-64
2023/05/17 13:46:04;;;;;;;7.13;2.10;;;;;;;;;;5076263;28;20447;-64
2023/05/17 13:48:31;;;;;;;7.17;2.20;;;;;;;;;;5076185;28;20541;-63
2023/05/17 13:50:58;;;;;;;5.83;2.13;;;;;;;;;;5076166;28;20453;-63
2023/05/17 13:53:26;;;;;;;6.70;2.03;;;;;;;;;;5075891;28;20584;-64
2023/05/17 13:55:53;;;;;;;5.50;1.90;;;;;;;;;;5075893;28;20542;-64
2023/05/17 13:58:20;;;;;;;3.73;1.63;;;;;;;;;;5075990;28;20448;-64
2023/05/17 14:00:47;;;;;;;3.73;1.83;;;;;;;;;;5076010;28;20889;-64
2023/05/17 14:03:14;;;;;;;2.80;1.40;;;;;;;;;;5076031;28;20450;-64
2023/05/17 14:05:42;;;;;;;9.40;2.57;;;;;;;;;;5075902;28;20461;-63
2023/05/17 14:08:09;;;;;;;10.20;2.60;;;;;;;;;;5075825;28;20495;-63
2023/05/17 14:10:37;;;;;;;4.27;1.90;;;;;;;;;;5075704;28;20447;-64
2023/05/17 14:13:04;;;;;;;4.63;1.50;;;;;;;;;;5075843;28;21018;-63
2023/05/17 14:15:36;;;;;;;4.60;1.70;;;;;;;;;;5075996;28;20538;-64
2023/05/17 14:18:03;;;;;;;8.60;2.20;;;;;;;;;;5075752;28;20524;-64
2023/05/17 14:20:30;;;;;;;4.20;1.70;;;;;;;;;;5075596;28;20888;-63
2023/05/17 14:22:57;;;;;;;6.70;2.23;;;;;;;;;;5075654;28;20541;-64
2023/05/17 14:25:24;;;;;;;5.93;2.40;;;;;;;;;;5075919;28;20545;-64
2023/05/17 14:27:53;;;;;;;4.20;2.13;;;;;;;;;;5075927;28;20860;-63
2023/05/17 14:30:20;;;;;;;7.53;1.73;;;;;;;;;;5075683;28;20452;-64
2023/05/17 14:32:47;;;;;;;5.60;1.93;;;;;;;;;;5075517;28;20482;-64
2023/05/17 14:35:15;;;;;;;5.10;1.90;;;;;;;;;;5074403;28;20451;-63
2023/05/17 14:37:42;;;;;;;6.80;1.57;;;;;;;;;;5075342;28;20449;-63
2023/05/17 14:40:10;;;;;;;6.93;1.50;;;;;;;;;;5075343;28;20487;-63
2023/05/17 14:42:37;;;;;;;3.67;1.63;;;;;;;;;;5075368;28;20458;-64
2023/05/17 14:45:06;;;;;;;3.50;1.80;;;;;;;;;;5075357;28;20446;-63